Omidiyeh, Iran
Current Conditions -  °F | °C
As of 2:00 PM on Friday 28 Nov 2014 (Local Time) from OIAG Reporting Station
Scattered Clouds Scattered Clouds  
Wind Chill: 22°   Ceiling: Unl
Heat Index: 22°   Visibility: 6mi
Dew Point: 13°   Wind: 12mph
Humidity: 57%   Direction: 330°NNW
Pressure: 30.03"   Gusts: NA
Location:  30.75°N, 49.71°E
Report Text: OIAG 281100Z 33010KT 9999 SCT040 22/13 Q1017
Loading
Personal Weather Stations






























Interactive Weather Map New forecast layout! Learn more

10-Day Weather Forecast

Advertisements
Track Severe Weather on mobile